createdAt,value
2018-11-28T00:02:34.280Z,13.63
2018-11-28T00:05:09.205Z,14.27
2018-11-28T00:07:41.393Z,14.37
2018-11-28T00:10:14.683Z,14.37
2018-11-28T00:12:44.890Z,13.80
2018-11-28T00:15:19.615Z,14.53
2018-11-28T00:17:51.174Z,15.00
2018-11-28T00:20:27.342Z,13.43
2018-11-28T00:23:03.235Z,13.63
2018-11-28T00:25:33.555Z,14.57
2018-11-28T00:28:05.967Z,14.97
2018-11-28T00:30:40.782Z,19.85
2018-11-28T00:33:21.124Z,16.57
2018-11-28T00:35:53.809Z,17.57
2018-11-28T00:38:43.256Z,16.00
2018-11-28T00:41:16.825Z,14.93
2018-11-28T00:43:50.074Z,13.87
2018-11-28T00:46:22.509Z,14.30
2018-11-28T00:48:53.947Z,13.37
2018-11-28T00:51:28.263Z,13.33
2018-11-28T00:54:00.887Z,14.37
2018-11-28T00:56:32.118Z,13.20
2018-11-28T00:59:03.600Z,13.53
2018-11-28T01:01:36.154Z,13.17
2018-11-28T01:04:06.406Z,13.37
2018-11-28T01:06:37.125Z,12.80
2018-11-28T01:09:11.071Z,15.48
2018-11-28T01:11:42.229Z,12.73
2018-11-28T01:14:17.019Z,18.48
2018-11-28T01:16:47.346Z,19.92
2018-11-28T01:19:20.148Z,14.37
2018-11-28T01:22:09.608Z,14.70
2018-11-28T01:24:40.824Z,12.57
2018-11-28T01:27:10.616Z,12.67
2018-11-28T01:29:43.009Z,12.83
2018-11-28T01:32:15.040Z,13.47
2018-11-28T01:34:48.151Z,12.30
2018-11-28T01:37:20.673Z,12.97
2018-11-28T01:39:51.806Z,11.77
2018-11-28T01:42:25.007Z,11.23
2018-11-28T01:44:56.940Z,11.20
2018-11-28T01:47:28.176Z,10.47
2018-11-28T01:50:01.556Z,10.10
2018-11-28T01:52:34.944Z,10.97
2018-11-28T01:55:10.775Z,10.47
2018-11-28T01:57:45.864Z,10.67
2018-11-28T02:00:26.832Z,11.13
2018-11-28T02:03:05.410Z,11.27
2018-11-28T02:05:37.262Z,11.10
2018-11-28T02:08:09.031Z,10.47
2018-11-28T02:10:41.237Z,10.03
2018-11-28T02:13:11.236Z,9.27
2018-11-28T02:15:41.759Z,9.77
2018-11-28T02:18:11.966Z,11.43
2018-11-28T02:20:44.914Z,9.97
2018-11-28T02:23:16.481Z,10.07
2018-11-28T02:25:49.214Z,9.30
2018-11-28T02:28:20.236Z,10.50
2018-11-28T02:30:50.650Z,11.43
2018-11-28T02:33:20.669Z,11.00
2018-11-28T02:35:54.825Z,10.97
2018-11-28T02:38:26.476Z,11.33
2018-11-28T02:40:59.590Z,11.87
2018-11-28T02:43:30.101Z,11.47
2018-11-28T02:46:45.948Z,10.63
2018-11-28T02:49:16.635Z,10.90
2018-11-28T02:51:56.162Z,10.43
2018-11-28T02:54:26.165Z,11.63
2018-11-28T02:57:00.950Z,10.73
2018-11-28T02:59:33.549Z,11.37
2018-11-28T03:02:05.323Z,9.97
2018-11-28T03:04:51.804Z,10.53
2018-11-28T03:07:24.204Z,10.83
2018-11-28T03:09:55.512Z,9.83
2018-11-28T03:12:26.469Z,10.93
2018-11-28T03:14:57.117Z,11.63
2018-11-28T03:17:30.750Z,11.97
2018-11-28T03:20:00.571Z,12.13
2018-11-28T03:22:38.129Z,11.57
2018-11-28T03:25:10.932Z,11.27
2018-11-28T03:27:44.157Z,12.77
2018-11-28T03:30:28.327Z,12.03
2018-11-28T03:33:00.213Z,12.37
2018-11-28T03:35:40.810Z,13.07
2018-11-28T03:38:14.396Z,13.03
2018-11-28T03:40:44.931Z,12.43
2018-11-28T03:43:26.052Z,13.47
2018-11-28T03:45:57.700Z,12.60
2018-11-28T03:48:31.066Z,13.43
2018-11-28T03:51:03.507Z,12.47
2018-11-28T03:53:37.302Z,13.27
2018-11-28T03:58:48.696Z,15.63
2018-11-28T04:01:20.401Z,12.70
2018-11-28T04:03:50.527Z,11.63
2018-11-28T04:06:22.670Z,10.27
2018-11-28T04:08:58.540Z,11.20
2018-11-28T04:11:29.169Z,11.10
2018-11-28T04:13:59.328Z,12.37
2018-11-28T04:16:31.722Z,10.67
2018-11-28T04:19:10.753Z,11.17
2018-11-28T04:21:40.977Z,11.07
2018-11-28T04:24:14.299Z,10.53
2018-11-28T04:26:50.328Z,9.67
2018-11-28T04:29:20.843Z,9.03
2018-11-28T04:31:51.288Z,9.23
2018-11-28T04:34:23.352Z,9.87
2018-11-28T04:36:53.364Z,9.50
2018-11-28T04:39:24.658Z,11.50
2018-11-28T04:42:13.946Z,11.43
2018-11-28T04:44:49.812Z,11.07
2018-11-28T04:47:38.347Z,10.30
2018-11-28T04:50:09.685Z,10.17
2018-11-28T04:52:40.900Z,9.93
2018-11-28T04:55:20.843Z,10.07
2018-11-28T04:57:53.451Z,10.37
2018-11-28T05:00:37.492Z,9.83
2018-11-28T05:03:11.554Z,10.63
2018-11-28T05:05:43.142Z,10.77
2018-11-28T05:08:26.322Z,10.27
2018-11-28T05:11:03.104Z,10.07
2018-11-28T05:13:34.681Z,12.07
2018-11-28T05:16:24.769Z,11.40
2018-11-28T05:18:56.049Z,11.23
2018-11-28T05:21:33.037Z,10.73
2018-11-28T05:24:04.270Z,12.83
2018-11-28T05:26:39.360Z,11.53
2018-11-28T05:29:10.932Z,9.67
2018-11-28T05:31:46.414Z,10.07
2018-11-28T05:34:18.650Z,11.27
2018-11-28T05:36:57.434Z,11.67
2018-11-28T05:39:30.505Z,11.40
2018-11-28T05:42:00.120Z,15.77
2018-11-28T05:44:34.528Z,14.63
2018-11-28T05:47:05.385Z,13.00
2018-11-28T05:49:41.579Z,14.10
2018-11-28T05:52:17.856Z,12.47
2018-11-28T05:54:50.525Z,12.07
2018-11-28T05:57:22.170Z,13.00
2018-11-28T05:59:57.523Z,13.13
2018-11-28T06:02:28.249Z,12.60
2018-11-28T06:05:00.240Z,13.17
2018-11-28T06:07:35.568Z,12.53
2018-11-28T06:10:06.084Z,12.77
2018-11-28T06:12:36.326Z,12.63
2018-11-28T06:15:07.410Z,12.23
2018-11-28T06:17:43.151Z,11.70
2018-11-28T06:20:32.823Z,11.20
2018-11-28T06:23:03.381Z,10.87
2018-11-28T06:25:37.103Z,10.90
2018-11-28T06:28:16.534Z,11.43
2018-11-28T06:30:46.889Z,10.47
2018-11-28T06:33:19.629Z,10.20
2018-11-28T06:35:51.837Z,11.30
2018-11-28T06:38:25.919Z,13.07
2018-11-28T06:41:02.888Z,11.40
2018-11-28T06:43:33.928Z,10.73
2018-11-28T06:46:07.440Z,10.83
2018-11-28T06:48:39.167Z,10.80
2018-11-28T06:51:19.682Z,10.80
2018-11-28T06:53:54.248Z,11.00
2018-11-28T06:56:29.885Z,10.97
2018-11-28T06:59:00.939Z,11.93
2018-11-28T07:01:43.967Z,11.27
2018-11-28T07:04:19.669Z,11.10
2018-11-28T07:06:57.522Z,11.70
2018-11-28T07:09:30.689Z,11.67
2018-11-28T07:12:13.303Z,13.03
2018-11-28T07:14:49.542Z,13.67
2018-11-28T07:17:41.417Z,13.83
2018-11-28T07:20:18.200Z,13.23
2018-11-28T07:22:58.158Z,13.20
2018-11-28T07:25:29.849Z,13.47
2018-11-28T07:28:13.263Z,13.20
2018-11-28T07:30:47.499Z,13.30
2018-11-28T07:33:18.552Z,13.93
2018-11-28T07:35:58.717Z,14.63
2018-11-28T07:38:28.548Z,14.97
2018-11-28T07:41:00.285Z,14.30
2018-11-28T07:43:29.510Z,14.23
2018-11-28T07:46:01.935Z,15.47
2018-11-28T07:48:39.992Z,14.07
2018-11-28T07:51:17.389Z,15.07
2018-11-28T07:53:49.358Z,13.23
2018-11-28T07:56:21.425Z,13.97
2018-11-28T07:58:54.928Z,15.27
2018-11-28T08:01:39.752Z,15.07
2018-11-28T08:04:14.905Z,12.93
2018-11-28T08:06:47.255Z,14.33
2018-11-28T08:09:18.483Z,14.20
2018-11-28T08:11:49.834Z,15.23
2018-11-28T08:14:25.329Z,17.97
2018-11-28T08:16:56.500Z,16.20
2018-11-28T08:19:27.986Z,16.93
2018-11-28T08:22:02.901Z,15.73
2018-11-28T08:24:35.138Z,15.57
2018-11-28T08:27:09.095Z,15.53
2018-11-28T08:29:42.104Z,15.63
2018-11-28T08:32:21.417Z,15.53
2018-11-28T08:34:56.221Z,15.93
2018-11-28T08:37:33.208Z,14.67
2018-11-28T08:40:25.096Z,14.97
2018-11-28T08:43:00.205Z,14.73
2018-11-28T08:45:36.188Z,13.97
2018-11-28T08:48:17.585Z,14.70
2018-11-28T08:50:54.504Z,13.77
2018-11-28T08:53:27.098Z,14.23
2018-11-28T08:55:59.111Z,13.93
2018-11-28T08:58:33.215Z,14.37
2018-11-28T09:01:23.782Z,14.40
2018-11-28T09:03:58.958Z,13.87
2018-11-28T09:06:29.411Z,14.60
2018-11-28T09:09:02.544Z,13.23
2018-11-28T09:11:34.430Z,14.00
2018-11-28T09:14:23.788Z,14.57
2018-11-28T09:21:24.645Z,14.57
2018-11-28T09:24:24.487Z,13.67
2018-11-28T09:27:21.002Z,15.27
2018-11-28T09:30:29.416Z,14.37
2018-11-28T09:33:18.314Z,13.63
2018-11-28T09:36:36.140Z,14.03
2018-11-28T09:39:09.796Z,14.50
2018-11-28T09:42:00.247Z,14.80
2018-11-28T09:44:29.585Z,14.33
2018-11-28T09:47:04.732Z,13.57
2018-11-28T09:49:34.708Z,13.67
2018-11-28T09:52:04.203Z,14.50
2018-11-28T09:54:56.833Z,15.43
2018-11-28T09:57:33.237Z,15.27
2018-11-28T10:00:09.953Z,13.67
2018-11-28T10:03:06.844Z,16.07
2018-11-28T10:06:05.736Z,18.20
2018-11-28T10:08:59.594Z,15.27
2018-11-28T10:11:51.373Z,14.33
2018-11-28T10:14:43.771Z,16.00
2018-11-28T10:17:42.713Z,14.07
2018-11-28T10:20:35.056Z,14.90
2018-11-28T10:23:25.832Z,15.27
2018-11-28T10:26:18.815Z,15.43
2018-11-28T10:29:09.183Z,15.70
2018-11-28T10:31:51.232Z,14.87
2018-11-28T10:34:33.502Z,15.33
2018-11-28T10:37:28.337Z,15.20
2018-11-28T10:40:10.007Z,16.60
2018-11-28T10:42:51.580Z,14.37
2018-11-28T10:45:36.217Z,15.07
2018-11-28T10:48:12.198Z,16.40
2018-11-28T10:50:46.984Z,14.83
2018-11-28T10:53:38.804Z,15.63
2018-11-28T10:56:30.519Z,15.63
2018-11-28T10:59:29.087Z,16.07
2018-11-28T11:02:43.707Z,14.90
2018-11-28T11:05:54.844Z,14.73
2018-11-28T11:08:28.526Z,14.73
2018-11-28T11:11:33.876Z,15.00
2018-11-28T11:14:52.264Z,15.13
2018-11-28T11:17:43.669Z,15.20
2018-11-28T11:20:28.282Z,15.20
2018-11-28T11:23:08.315Z,15.03
2018-11-28T11:25:51.857Z,14.50
2018-11-28T11:28:41.792Z,13.20
2018-11-28T11:31:20.534Z,13.27
2018-11-28T11:34:01.906Z,12.70
2018-11-28T11:40:01.092Z,13.43
2018-11-28T11:42:35.418Z,12.80
2018-11-28T11:45:31.637Z,11.30
2018-11-28T11:48:14.336Z,12.70
2018-11-28T11:50:51.200Z,13.70
2018-11-28T11:53:29.160Z,12.30
2018-11-28T11:56:02.178Z,12.10
2018-11-28T11:58:48.325Z,13.13
2018-11-28T12:01:28.669Z,12.80
2018-11-28T12:04:17.726Z,13.10
2018-11-28T12:07:12.398Z,13.20
2018-11-28T12:09:57.162Z,13.13
2018-11-28T12:12:38.650Z,11.87
2018-11-28T12:15:32.672Z,11.67
2018-11-28T12:18:11.319Z,11.57
2018-11-28T12:21:03.623Z,11.47
2018-11-28T12:23:53.953Z,12.13
2018-11-28T12:26:44.637Z,11.93
2018-11-28T12:29:37.157Z,12.93
2018-11-28T12:32:22.908Z,12.37
2018-11-28T12:34:58.314Z,12.70
2018-11-28T12:37:35.547Z,12.57
2018-11-28T12:40:19.094Z,11.43
2018-11-28T12:43:15.268Z,12.57
2018-11-28T12:45:51.972Z,11.50
2018-11-28T12:48:25.276Z,11.77
2018-11-28T12:51:14.642Z,13.53
2018-11-28T12:53:49.615Z,13.33
2018-11-28T12:56:29.735Z,13.70
2018-11-28T12:59:01.682Z,13.17
2018-11-28T13:01:36.956Z,13.13
2018-11-28T13:04:11.079Z,12.90
2018-11-28T13:06:41.671Z,12.03
2018-11-28T13:09:12.986Z,11.73
2018-11-28T13:11:44.981Z,11.83
2018-11-28T13:14:17.025Z,12.77
2018-11-28T13:16:51.052Z,13.23
2018-11-28T13:19:21.253Z,12.40
2018-11-28T13:21:52.286Z,12.33
2018-11-28T13:24:34.355Z,13.03
2018-11-28T13:27:10.947Z,12.27
2018-11-28T13:29:43.632Z,14.10
2018-11-28T13:32:20.508Z,13.50
2018-11-28T13:34:57.953Z,13.43
2018-11-28T13:37:37.200Z,12.43
2018-11-28T13:40:18.100Z,12.33
2018-11-28T13:43:00.171Z,12.27
2018-11-28T13:45:36.344Z,13.00
2018-11-28T13:48:11.341Z,13.50
2018-11-28T13:50:49.676Z,12.70
2018-11-28T13:53:18.611Z,13.10
2018-11-28T13:58:35.880Z,13.67
2018-11-28T14:01:08.311Z,13.30
2018-11-28T14:03:40.984Z,14.43
2018-11-28T14:06:11.427Z,13.90
2018-11-28T14:08:55.843Z,12.90
2018-11-28T14:11:25.951Z,14.13
2018-11-28T14:14:02.111Z,13.63
2018-11-28T14:16:58.067Z,13.43
2018-11-28T14:19:53.651Z,13.63
2018-11-28T14:22:34.647Z,14.07
2018-11-28T14:25:12.265Z,13.30
2018-11-28T14:28:00.621Z,13.27
2018-11-28T14:30:45.010Z,14.03
2018-11-28T14:33:34.572Z,14.23
2018-11-28T14:36:21.968Z,13.47
2018-11-28T14:39:06.045Z,13.40
2018-11-28T14:41:50.995Z,13.23
2018-11-28T14:44:21.375Z,14.67
2018-11-28T14:46:56.711Z,14.03
2018-11-28T14:49:31.972Z,14.43
2018-11-28T14:52:11.137Z,14.63
2018-11-28T14:54:59.484Z,13.63
2018-11-28T14:57:49.400Z,13.23
2018-11-28T15:00:39.951Z,13.93
2018-11-28T15:03:40.275Z,13.43
2018-11-28T15:06:42.168Z,13.23
2018-11-28T15:09:38.658Z,13.17
2018-11-28T15:12:40.014Z,13.43
2018-11-28T15:15:16.774Z,13.33
2018-11-28T15:18:06.730Z,13.87
2018-11-28T15:21:00.939Z,13.63
2018-11-28T15:23:43.277Z,13.10
2018-11-28T15:26:21.645Z,14.17
2018-11-28T15:28:56.148Z,14.17
2018-11-28T15:31:43.792Z,15.40
2018-11-28T15:34:16.171Z,13.80
2018-11-28T15:37:09.326Z,15.23
2018-11-28T15:40:01.459Z,14.67
2018-11-28T15:42:49.210Z,13.97
2018-11-28T15:45:53.971Z,14.63
2018-11-28T15:48:48.017Z,13.87
2018-11-28T15:51:35.095Z,15.40
2018-11-28T15:54:13.191Z,15.30
2018-11-28T15:56:42.691Z,15.53
2018-11-28T15:59:13.159Z,14.20
2018-11-28T16:01:43.479Z,14.97
2018-11-28T16:04:26.793Z,17.20
2018-11-28T16:10:57.437Z,15.67
2018-11-28T16:13:34.855Z,15.27
2018-11-28T16:16:06.886Z,15.97
2018-11-28T16:18:37.428Z,16.00
2018-11-28T16:21:13.371Z,17.10
2018-11-28T16:23:43.570Z,15.63
2018-11-28T16:26:16.816Z,18.13
2018-11-28T16:28:49.066Z,17.00
2018-11-28T16:31:19.234Z,18.77
2018-11-28T16:33:51.164Z,18.23
2018-11-28T16:36:33.981Z,20.07
2018-11-28T16:39:04.743Z,21.17
2018-11-28T16:41:42.233Z,21.00
2018-11-28T16:44:16.097Z,20.33
2018-11-28T16:47:18.052Z,17.40
2018-11-28T16:49:52.841Z,17.50
2018-11-28T16:52:24.673Z,19.47
2018-11-28T16:55:14.212Z,19.20
2018-11-28T16:57:45.614Z,20.13
2018-11-28T17:00:19.939Z,20.57
2018-11-28T17:02:51.538Z,21.47
2018-11-28T17:05:22.556Z,21.80
2018-11-28T17:07:53.894Z,20.27
2018-11-28T17:10:33.354Z,18.50
2018-11-28T17:13:04.961Z,19.10
2018-11-28T17:15:37.543Z,19.63
2018-11-28T17:18:12.251Z,17.60
2018-11-28T17:20:45.969Z,18.97
2018-11-28T17:23:18.222Z,19.60
2018-11-28T17:25:53.703Z,17.87
2018-11-28T17:28:24.486Z,18.40
2018-11-28T17:31:02.187Z,20.60
2018-11-28T17:33:34.937Z,18.80
2018-11-28T17:36:15.388Z,20.53
2018-11-28T17:38:47.560Z,20.17
2018-11-28T17:41:24.236Z,19.67
2018-11-28T17:43:58.102Z,19.20
2018-11-28T17:46:40.727Z,19.27
2018-11-28T17:49:10.792Z,18.83
2018-11-28T17:51:42.930Z,19.50
2018-11-28T17:54:16.735Z,21.10
2018-11-28T17:56:52.638Z,21.03
2018-11-28T17:59:47.541Z,18.07
2018-11-28T18:02:17.951Z,18.73
2018-11-28T18:04:50.071Z,18.47
2018-11-28T18:07:22.200Z,17.90
2018-11-28T18:09:55.769Z,18.20
2018-11-28T18:12:28.526Z,16.50
2018-11-28T18:14:59.088Z,17.50
2018-11-28T18:17:33.841Z,16.87
2018-11-28T18:20:20.074Z,15.47
2018-11-28T18:22:54.593Z,16.63
2018-11-28T18:25:27.286Z,16.23
2018-11-28T18:28:20.270Z,16.73
2018-11-28T18:30:58.654Z,16.83
2018-11-28T18:33:30.305Z,17.80
2018-11-28T18:36:01.630Z,21.80
2018-11-28T18:38:33.309Z,23.50
2018-11-28T18:41:05.492Z,20.90
2018-11-28T18:43:40.024Z,22.73
2018-11-28T18:46:11.825Z,24.47
2018-11-28T18:48:44.792Z,24.70
2018-11-28T18:51:16.777Z,23.37
2018-11-28T18:53:51.658Z,24.27
2018-11-28T18:56:23.004Z,19.20
2018-11-28T18:58:54.026Z,14.00
2018-11-28T19:01:25.196Z,13.67
2018-11-28T19:03:56.126Z,13.30
2018-11-28T19:06:31.352Z,15.17
2018-11-28T19:09:09.678Z,15.47
2018-11-28T19:11:40.056Z,15.63
2018-11-28T19:14:13.580Z,15.57
2018-11-28T19:16:50.038Z,17.27
2018-11-28T19:19:20.419Z,16.83
2018-11-28T19:21:55.737Z,16.27
2018-11-28T19:24:28.106Z,16.33
2018-11-28T19:27:04.328Z,14.27
2018-11-28T19:29:35.668Z,14.70
2018-11-28T19:32:06.365Z,14.97
2018-11-28T19:34:45.384Z,15.57
2018-11-28T19:37:18.760Z,15.63
2018-11-28T19:39:51.100Z,16.53
2018-11-28T19:42:28.710Z,16.77
2018-11-28T19:45:20.485Z,16.87
2018-11-28T19:48:01.624Z,16.27
2018-11-28T19:50:34.348Z,15.50
2018-11-28T19:53:10.288Z,17.20
2018-11-28T19:55:44.139Z,17.37
2018-11-28T20:04:50.092Z,17.03
2018-11-28T20:07:24.637Z,16.97
2018-11-28T20:09:58.652Z,17.43
2018-11-28T20:12:30.387Z,17.97
2018-11-28T20:15:02.347Z,18.30
2018-11-28T20:17:34.950Z,18.60
2018-11-28T20:20:15.086Z,20.50
2018-11-28T20:22:45.431Z,18.10
2018-11-28T20:25:20.335Z,20.47
2018-11-28T20:27:59.342Z,20.57
2018-11-28T20:30:37.442Z,18.87
2018-11-28T20:33:07.861Z,18.30
2018-11-28T20:35:42.596Z,19.30
2018-11-28T20:38:29.379Z,18.20
2018-11-28T20:41:01.150Z,18.63
2018-11-28T20:43:36.157Z,17.20
2018-11-28T20:46:14.269Z,17.47
2018-11-28T20:48:45.668Z,16.67
2018-11-28T20:51:17.970Z,15.73
2018-11-28T20:53:52.060Z,19.25
2018-11-28T20:56:23.746Z,16.20
2018-11-28T20:59:10.475Z,14.43
2018-11-28T21:01:42.896Z,15.60
2018-11-28T21:04:13.425Z,14.10
2018-11-28T21:06:48.913Z,14.13
2018-11-28T21:09:19.489Z,20.45
2018-11-28T21:11:49.772Z,15.67
2018-11-28T21:14:24.179Z,15.73
2018-11-28T21:16:58.385Z,15.07
2018-11-28T21:19:35.341Z,25.67
2018-11-28T21:22:08.403Z,22.63
2018-11-28T21:24:41.897Z,20.13
2018-11-28T21:27:12.316Z,19.67
2018-11-28T21:29:48.135Z,20.30
2018-11-28T21:32:20.975Z,18.13
2018-11-28T21:34:51.964Z,19.13
2018-11-28T21:37:25.431Z,19.50
2018-11-28T21:39:58.338Z,17.47
2018-11-28T21:42:30.790Z,20.33
2018-11-28T21:45:02.394Z,18.53
2018-11-28T21:47:33.911Z,18.33
2018-11-28T21:50:18.815Z,17.83
2018-11-28T21:52:50.270Z,19.90
2018-11-28T21:55:25.034Z,17.90
2018-11-28T21:57:58.456Z,16.70
2018-11-28T22:00:30.776Z,17.33
2018-11-28T22:03:00.826Z,16.27
2018-11-28T22:05:32.820Z,16.77
2018-11-28T22:08:08.104Z,15.10
2018-11-28T22:10:39.526Z,14.60
2018-11-28T22:13:36.676Z,15.37
2018-11-28T22:16:14.364Z,15.30
2018-11-28T22:18:46.868Z,15.03
2018-11-28T22:21:19.192Z,14.60
2018-11-28T22:24:09.313Z,15.73
2018-11-28T22:26:53.304Z,16.07
2018-11-28T22:29:24.229Z,16.30
2018-11-28T22:32:16.074Z,16.17
2018-11-28T22:34:48.186Z,18.80
2018-11-28T22:37:29.287Z,20.10
2018-11-28T22:40:04.587Z,17.43
2018-11-28T22:42:39.645Z,17.13
2018-11-28T22:45:19.520Z,15.83
2018-11-28T22:47:51.781Z,15.90
2018-11-28T22:50:22.598Z,15.37
2018-11-28T22:52:55.671Z,16.70
2018-11-28T22:55:30.893Z,15.90
2018-11-28T22:58:02.930Z,17.13
2018-11-28T23:00:55.559Z,19.03
2018-11-28T23:03:25.889Z,21.43
2018-11-28T23:05:59.012Z,17.40
2018-11-28T23:08:31.643Z,17.93
2018-11-28T23:11:02.738Z,17.37
2018-11-28T23:13:34.090Z,17.33
2018-11-28T23:16:15.935Z,16.77
2018-11-28T23:18:47.852Z,16.17
2018-11-28T23:21:20.533Z,14.83
2018-11-28T23:23:56.575Z,15.80
2018-11-28T23:26:31.534Z,17.03
2018-11-28T23:29:03.701Z,15.13
2018-11-28T23:31:43.724Z,15.43
2018-11-28T23:34:16.323Z,16.53
2018-11-28T23:36:54.152Z,16.07
2018-11-28T23:39:29.838Z,16.23
2018-11-28T23:42:06.086Z,16.57
2018-11-28T23:44:38.673Z,16.77
2018-11-28T23:47:08.877Z,17.00
2018-11-28T23:49:39.361Z,18.40
2018-11-28T23:52:11.817Z,17.60
2018-11-28T23:54:43.859Z,16.33
2018-11-28T23:57:13.352Z,16.10
2018-11-28T23:59:45.291Z,16.47
